createdAt,value
2023-01-10T00:04:38.239Z,79.74
2023-01-10T00:09:40.613Z,78.65
2023-01-10T00:14:42.801Z,77.91
2023-01-10T00:19:45.142Z,77.61
2023-01-10T00:24:47.447Z,77.09
2023-01-10T00:29:54.115Z,77.30
2023-01-10T00:34:56.422Z,77.14
2023-01-10T00:39:59.044Z,78.05
2023-01-10T00:45:01.427Z,77.47
2023-01-10T00:50:08.826Z,77.00
2023-01-10T00:55:11.226Z,76.23
2023-01-10T01:00:14.081Z,77.44
2023-01-10T01:05:16.569Z,78.39
2023-01-10T01:10:29.039Z,80.56
2023-01-10T01:15:31.439Z,79.68
2023-01-10T01:20:34.149Z,79.29
2023-01-10T01:25:36.500Z,79.63
2023-01-10T01:30:39.057Z,79.66
2023-01-10T01:35:46.450Z,80.60
2023-01-10T01:40:48.735Z,80.60
2023-01-10T01:45:51.628Z,80.19
2023-01-10T01:51:29.573Z,79.93
2023-01-10T01:56:45.330Z,78.87
2023-01-10T02:01:52.661Z,79.44
2023-01-10T02:06:57.579Z,79.67
2023-01-10T02:12:00.146Z,79.75
2023-01-10T02:17:02.526Z,80.67
2023-01-10T02:22:30.963Z,79.32
2023-01-10T02:28:28.310Z,80.90
2023-01-10T02:33:40.957Z,78.87
2023-01-10T02:39:05.307Z,79.72
2023-01-10T02:44:34.506Z,79.39
2023-01-10T02:49:49.105Z,79.54
2023-01-10T02:54:59.044Z,80.56
2023-01-10T03:00:09.125Z,80.03
2023-01-10T03:05:49.369Z,79.47
2023-01-10T03:11:02.933Z,77.30
2023-01-10T03:16:09.794Z,77.57
2023-01-10T03:21:13.549Z,78.30
2023-01-10T03:26:22.948Z,78.73
2023-01-10T03:31:36.203Z,80.59
2023-01-10T03:37:03.384Z,81.62
2023-01-10T03:42:24.989Z,81.46
2023-01-10T03:47:45.637Z,81.54
2023-01-10T03:52:49.063Z,80.64
2023-01-10T03:57:51.427Z,81.36
2023-01-10T04:02:53.731Z,81.07
2023-01-10T04:07:56.088Z,80.75
2023-01-10T04:13:02.664Z,79.73
2023-01-10T04:18:05.046Z,80.66
2023-01-10T04:23:07.321Z,78.77
2023-01-10T04:28:09.587Z,78.71
2023-01-10T04:33:12.708Z,79.20
2023-01-10T04:38:15.910Z,78.48
2023-01-10T04:43:18.138Z,80.10
2023-01-10T04:48:20.851Z,80.36
2023-01-10T04:53:23.471Z,80.38
2023-01-10T04:58:26.007Z,80.68
2023-01-10T05:03:28.254Z,81.34
2023-01-10T05:08:30.687Z,81.00
2023-01-10T05:13:32.947Z,81.33
2023-01-10T05:18:35.433Z,80.60
2023-01-10T05:23:38.722Z,80.03
2023-01-10T05:34:01.977Z,80.70
2023-01-10T05:39:04.494Z,80.21
2023-01-10T05:44:08.070Z,80.61
2023-01-10T05:49:10.412Z,80.59
2023-01-10T05:54:12.765Z,81.59
2023-01-10T05:59:27.585Z,80.87
2023-01-10T06:04:30.328Z,80.36
2023-01-10T06:09:32.781Z,80.68
2023-01-10T06:14:35.060Z,80.56
2023-01-10T06:19:37.722Z,80.11
2023-01-10T06:24:39.949Z,79.98
2023-01-10T06:29:42.423Z,80.10
2023-01-10T06:34:44.805Z,80.01
2023-01-10T06:39:47.300Z,80.70
2023-01-10T06:44:49.684Z,80.54
2023-01-10T06:49:52.064Z,79.66
2023-01-10T06:54:54.609Z,80.12
2023-01-10T06:59:56.933Z,80.74
2023-01-10T07:04:59.290Z,80.30
2023-01-10T07:10:01.732Z,79.52
2023-01-10T07:15:05.292Z,79.01
2023-01-10T07:20:08.777Z,79.75
2023-01-10T07:25:11.507Z,78.96
2023-01-10T07:30:14.089Z,78.80
2023-01-10T07:35:16.464Z,79.27
2023-01-10T07:40:19.342Z,79.76
2023-01-10T07:45:21.838Z,79.92
2023-01-10T07:50:24.182Z,79.90
2023-01-10T07:55:27.590Z,79.42
2023-01-10T08:00:29.864Z,79.84
2023-01-10T08:05:32.511Z,79.36
2023-01-10T08:10:36.099Z,78.83
2023-01-10T08:15:38.510Z,79.28
2023-01-10T08:20:41.735Z,79.84
2023-01-10T08:25:44.372Z,79.42
2023-01-10T08:30:49.015Z,78.82
2023-01-10T08:35:53.001Z,79.24
2023-01-10T08:41:00.940Z,79.76
2023-01-10T08:46:03.449Z,78.77
2023-01-10T08:51:10.549Z,79.70
2023-01-10T08:56:12.948Z,78.70
2023-01-10T09:01:15.520Z,78.83
2023-01-10T09:06:17.904Z,78.41
2023-01-10T09:11:20.270Z,78.67
2023-01-10T09:16:24.157Z,78.76
2023-01-10T09:21:29.211Z,79.42
2023-01-10T09:26:31.508Z,78.78
2023-01-10T09:31:33.877Z,78.68
2023-01-10T09:36:37.334Z,78.32
2023-01-10T09:41:57.753Z,78.52
2023-01-10T09:47:43.619Z,78.12
2023-01-10T09:52:52.936Z,76.81
2023-01-10T09:57:59.505Z,75.60
2023-01-10T10:03:10.727Z,76.05
2023-01-10T10:08:18.369Z,75.42
2023-01-10T10:13:54.647Z,73.55
2023-01-10T10:19:46.278Z,73.86
2023-01-10T10:25:19.788Z,73.23
2023-01-10T10:30:35.524Z,72.71
2023-01-10T10:35:47.787Z,72.99
2023-01-10T10:40:53.011Z,72.45
2023-01-10T10:46:02.445Z,72.30
2023-01-10T10:51:42.825Z,71.20
2023-01-10T10:56:45.854Z,71.25
2023-01-10T11:01:51.046Z,71.16
2023-01-10T11:06:53.784Z,71.48
2023-01-10T11:11:57.053Z,70.69
2023-01-10T11:17:27.589Z,70.79
2023-01-10T11:22:40.138Z,70.07
2023-01-10T11:27:53.711Z,70.01
2023-01-10T11:33:03.549Z,70.22
2023-01-10T11:38:22.235Z,70.42
2023-01-10T11:43:36.463Z,69.45
2023-01-10T11:49:05.613Z,68.86
2023-01-10T11:54:20.467Z,68.10
2023-01-10T11:59:24.543Z,67.68
2023-01-10T12:04:34.034Z,67.75
2023-01-10T12:09:48.010Z,67.74
2023-01-10T12:14:51.769Z,66.44
2023-01-10T12:19:58.809Z,66.37
2023-01-10T12:25:06.437Z,66.54
2023-01-10T12:30:33.978Z,64.73
2023-01-10T12:35:45.791Z,64.76
2023-01-10T16:56:04.929Z,63.31
2023-01-10T17:01:09.243Z,63.38
2023-01-10T17:06:13.698Z,62.43
2023-01-10T17:11:21.905Z,63.59
2023-01-10T17:16:24.227Z,63.17
2023-01-10T17:21:27.119Z,62.59
2023-01-10T17:26:29.211Z,63.22
2023-01-10T17:31:31.359Z,63.93
2023-01-10T17:36:38.555Z,62.80
2023-01-10T17:41:40.708Z,61.44
2023-01-10T17:46:43.016Z,60.62
2023-01-10T17:51:45.337Z,59.54
2023-01-10T17:56:48.019Z,61.77
2023-01-10T18:01:50.288Z,61.80
2023-01-10T18:06:52.514Z,60.47
2023-01-10T18:11:54.628Z,61.06
2023-01-10T18:16:56.843Z,61.84
2023-01-10T18:21:59.027Z,59.91
2023-01-10T18:27:01.157Z,60.53
2023-01-10T18:32:03.471Z,60.61
2023-01-10T18:37:05.743Z,56.74
2023-01-10T18:42:07.929Z,56.42
2023-01-10T18:47:10.239Z,58.10
2023-01-10T18:52:12.364Z,57.09
2023-01-10T18:57:15.246Z,58.25
2023-01-10T19:02:17.616Z,56.28
2023-01-10T19:07:19.779Z,57.88
2023-01-10T19:12:22.125Z,58.82
2023-01-10T19:17:25.235Z,59.13
2023-01-10T19:22:27.563Z,58.84
2023-01-10T19:27:29.747Z,58.26
2023-01-10T19:32:35.084Z,61.38
2023-01-10T19:37:37.212Z,58.17
2023-01-10T19:42:39.494Z,60.69
2023-01-10T19:47:41.631Z,59.74
2023-01-10T19:52:43.875Z,58.98
2023-01-10T19:57:46.014Z,60.57
2023-01-10T20:02:48.388Z,59.08
2023-01-10T20:07:52.176Z,60.17
2023-01-10T20:12:54.304Z,59.17
2023-01-10T20:17:56.429Z,58.60
2023-01-10T20:22:58.625Z,57.46
2023-01-10T20:28:00.888Z,57.61
2023-01-10T20:33:03.078Z,58.13
2023-01-10T20:38:07.348Z,59.61
2023-01-10T20:43:09.658Z,59.88
2023-01-10T20:48:11.988Z,60.00
2023-01-10T20:53:15.664Z,59.74
2023-01-10T20:58:18.059Z,59.01
2023-01-10T21:03:20.349Z,59.51
2023-01-10T21:08:23.304Z,59.37
2023-01-10T21:13:26.554Z,60.69
2023-01-10T21:18:35.678Z,61.26
2023-01-10T21:23:38.145Z,60.94
2023-01-10T21:28:46.495Z,61.44
2023-01-10T21:33:49.691Z,61.20
2023-01-10T21:38:53.091Z,61.24
2023-01-10T21:43:55.337Z,61.59
2023-01-10T21:48:57.697Z,62.42
2023-01-10T21:54:00.109Z,63.09
2023-01-10T21:59:02.416Z,62.17
2023-01-10T22:04:04.876Z,63.16
2023-01-10T22:09:07.455Z,61.98
2023-01-10T22:14:12.911Z,63.12
2023-01-10T22:19:15.336Z,61.95
2023-01-10T22:24:17.802Z,64.11
2023-01-10T22:29:20.777Z,65.94
2023-01-10T22:34:23.666Z,65.13
2023-01-10T22:39:26.251Z,67.01
2023-01-10T22:44:28.936Z,67.27
2023-01-10T22:49:31.242Z,68.48
2023-01-10T22:54:33.960Z,68.43
2023-01-10T22:59:37.236Z,68.65
2023-01-10T23:04:39.504Z,69.66
2023-01-10T23:09:41.858Z,69.96
2023-01-10T23:14:47.286Z,70.11
2023-01-10T23:19:49.644Z,70.34
2023-01-10T23:24:53.167Z,69.04
2023-01-10T23:29:55.547Z,68.45
2023-01-10T23:34:57.866Z,70.08
2023-01-10T23:40:00.292Z,70.09
2023-01-10T23:45:02.704Z,70.18
2023-01-10T23:50:05.734Z,70.09
2023-01-10T23:55:08.735Z,70.21
